createdAt,value
2019-02-26T00:01:35.576Z,14.10
2019-02-26T00:04:05.248Z,12.33
2019-02-26T00:06:34.324Z,8.60
2019-02-26T00:09:06.902Z,9.53
2019-02-26T00:11:37.938Z,10.03
2019-02-26T00:14:07.099Z,7.77
2019-02-26T00:16:39.756Z,8.77
2019-02-26T00:19:09.783Z,7.03
2019-02-26T00:21:40.076Z,12.00
2019-02-26T00:24:11.909Z,8.03
2019-02-26T00:26:42.797Z,41.23
2019-02-26T00:29:12.361Z,34.83
2019-02-26T00:31:43.404Z,38.57
2019-02-26T00:34:15.958Z,17.37
2019-02-26T00:36:44.667Z,22.53
2019-02-26T00:39:14.224Z,15.43
2019-02-26T00:41:43.417Z,16.20
2019-02-26T00:44:12.962Z,14.63
2019-02-26T00:46:42.525Z,9.93
2019-02-26T00:49:12.350Z,13.37
2019-02-26T00:51:45.929Z,15.40
2019-02-26T00:54:13.137Z,9.13
2019-02-26T00:56:42.057Z,11.87
2019-02-26T00:59:11.637Z,9.43
2019-02-26T01:01:44.104Z,12.33
2019-02-26T01:04:11.998Z,18.13
2019-02-26T01:06:41.571Z,31.33
2019-02-26T01:09:13.827Z,31.80
2019-02-26T01:11:45.053Z,14.17
2019-02-26T01:14:15.776Z,13.13
2019-02-26T01:16:48.087Z,33.47
2019-02-26T01:19:18.055Z,20.67
2019-02-26T01:21:47.891Z,26.20
2019-02-26T01:24:17.739Z,17.60
2019-02-26T01:26:46.640Z,30.10
2019-02-26T01:29:18.513Z,25.30
2019-02-26T01:31:47.025Z,16.73
2019-02-26T01:34:18.135Z,19.87
2019-02-26T01:36:49.544Z,21.07
2019-02-26T01:39:21.584Z,12.90
2019-02-26T01:41:53.310Z,12.90
2019-02-26T01:44:21.919Z,11.90
2019-02-26T01:46:53.318Z,7.83
2019-02-26T01:49:23.731Z,10.43
2019-02-26T01:51:54.254Z,5.73
2019-02-26T01:54:24.097Z,10.80
2019-02-26T01:56:53.471Z,23.47
2019-02-26T01:59:23.042Z,11.47
2019-02-26T02:01:53.753Z,20.73
2019-02-26T02:04:23.430Z,10.27
2019-02-26T02:06:54.913Z,12.53
2019-02-26T02:09:25.143Z,7.87
2019-02-26T02:11:54.041Z,8.57
2019-02-26T02:14:23.605Z,8.60
2019-02-26T02:16:53.415Z,6.97
2019-02-26T02:19:25.184Z,8.13
2019-02-26T02:21:54.405Z,8.93
2019-02-26T02:24:24.997Z,7.23
2019-02-26T02:26:55.584Z,6.27
2019-02-26T02:29:28.043Z,4.10
2019-02-26T02:32:01.404Z,7.27
2019-02-26T02:34:29.586Z,7.47
2019-02-26T02:36:58.975Z,5.47
2019-02-26T02:39:29.213Z,7.20
2019-02-26T02:41:58.798Z,5.70
2019-02-26T02:44:28.329Z,5.07
2019-02-26T02:46:59.071Z,9.83
2019-02-26T02:49:29.689Z,6.10
2019-02-26T02:52:01.457Z,5.83
2019-02-26T02:54:31.079Z,5.13
2019-02-26T02:57:00.595Z,6.07
2019-02-26T02:59:33.987Z,6.07
2019-02-26T03:02:02.038Z,5.40
2019-02-26T03:04:34.580Z,7.53
2019-02-26T03:07:03.286Z,5.27
2019-02-26T03:09:37.206Z,5.03
2019-02-26T03:12:04.038Z,4.80
2019-02-26T03:14:38.335Z,4.17
2019-02-26T03:17:08.363Z,5.63
2019-02-26T03:19:40.407Z,3.80
2019-02-26T03:22:09.605Z,4.80
2019-02-26T03:24:39.546Z,5.30
2019-02-26T03:27:09.095Z,6.40
2019-02-26T03:29:39.105Z,4.60
2019-02-26T03:32:08.933Z,3.70
2019-02-26T03:34:37.873Z,4.87
2019-02-26T03:37:08.235Z,4.67
2019-02-26T03:39:39.599Z,6.53
2019-02-26T03:42:10.603Z,3.40
2019-02-26T03:44:46.188Z,3.70
2019-02-26T03:47:16.260Z,5.20
2019-02-26T03:49:45.060Z,6.27
2019-02-26T03:52:15.884Z,6.40
2019-02-26T03:54:47.975Z,4.77
2019-02-26T03:57:16.765Z,8.17
2019-02-26T03:59:48.615Z,5.27
2019-02-26T04:02:20.231Z,5.23
2019-02-26T04:04:51.650Z,3.97
2019-02-26T04:07:19.765Z,4.17
2019-02-26T04:09:52.437Z,3.07
2019-02-26T04:12:20.916Z,4.33
2019-02-26T04:14:50.802Z,4.37
2019-02-26T04:17:23.157Z,3.97
2019-02-26T04:19:51.557Z,5.80
2019-02-26T04:22:28.562Z,3.77
2019-02-26T04:25:01.495Z,5.63
2019-02-26T04:27:52.987Z,4.30
2019-02-26T04:30:59.111Z,4.10
2019-02-26T04:33:50.243Z,3.83
2019-02-26T04:36:47.593Z,3.53
2019-02-26T04:39:53.561Z,3.03
2019-02-26T04:43:18.102Z,3.67
2019-02-26T04:46:25.559Z,4.17
2019-02-26T04:48:56.210Z,4.60
2019-02-26T04:51:25.794Z,4.07
2019-02-26T04:53:56.136Z,3.53
2019-02-26T04:56:26.205Z,2.83
2019-02-26T04:58:55.117Z,3.40
2019-02-26T05:01:24.031Z,3.37
2019-02-26T05:03:55.040Z,5.40
2019-02-26T05:06:24.583Z,3.83
2019-02-26T05:08:56.929Z,3.10
2019-02-26T05:11:31.394Z,4.57
2019-02-26T05:13:56.901Z,5.20
2019-02-26T05:16:26.691Z,4.90
2019-02-26T05:18:58.456Z,5.63
2019-02-26T05:21:30.396Z,6.60
2019-02-26T05:24:02.952Z,5.87
2019-02-26T05:26:32.150Z,4.07
2019-02-26T05:29:01.715Z,5.37
2019-02-26T05:31:33.199Z,6.13
2019-02-26T05:34:02.753Z,4.77
2019-02-26T05:36:34.349Z,5.40
2019-02-26T05:39:04.701Z,5.23
2019-02-26T05:41:33.597Z,5.30
2019-02-26T05:44:06.613Z,6.43
2019-02-26T05:46:34.645Z,4.73
2019-02-26T05:49:06.829Z,6.17
2019-02-26T05:51:36.027Z,4.43
2019-02-26T05:54:08.036Z,6.80
2019-02-26T05:56:40.762Z,5.43
2019-02-26T05:59:09.512Z,5.93
2019-02-26T06:01:41.230Z,5.97
2019-02-26T06:04:12.256Z,7.07
2019-02-26T06:06:40.720Z,9.27
2019-02-26T06:09:10.585Z,8.27
2019-02-26T06:11:42.860Z,5.10
2019-02-26T06:14:12.649Z,5.33
2019-02-26T06:16:43.208Z,6.33
2019-02-26T06:19:13.914Z,9.10
2019-02-26T06:21:44.721Z,5.47
2019-02-26T06:24:15.147Z,6.30
2019-02-26T06:26:45.539Z,7.17
2019-02-26T06:29:14.951Z,5.70
2019-02-26T06:31:46.813Z,7.90
2019-02-26T06:34:16.317Z,5.87
2019-02-26T06:36:48.939Z,6.03
2019-02-26T06:39:22.239Z,4.87
2019-02-26T06:41:51.281Z,7.63
2019-02-26T06:44:26.038Z,6.37
2019-02-26T06:46:55.762Z,6.83
2019-02-26T06:49:26.894Z,6.27
2019-02-26T06:51:57.105Z,6.33
2019-02-26T06:54:28.910Z,4.03
2019-02-26T06:56:57.977Z,6.20
2019-02-26T06:59:33.852Z,7.80
2019-02-26T07:02:01.528Z,7.93
2019-02-26T07:04:31.329Z,5.77
2019-02-26T07:07:02.446Z,9.03
2019-02-26T07:09:36.939Z,8.13
2019-02-26T07:12:07.522Z,8.50
2019-02-26T07:14:37.136Z,8.57
2019-02-26T07:17:06.654Z,7.47
2019-02-26T07:19:36.327Z,6.57
2019-02-26T07:22:08.302Z,7.67
2019-02-26T07:24:41.801Z,6.53
2019-02-26T07:27:11.517Z,5.27
2019-02-26T07:29:44.368Z,7.57
2019-02-26T07:32:14.783Z,5.50
2019-02-26T07:34:45.263Z,6.90
2019-02-26T07:37:15.913Z,11.57
2019-02-26T07:39:47.188Z,9.53
2019-02-26T07:42:18.801Z,8.07
2019-02-26T07:44:48.122Z,16.30
2019-02-26T07:47:17.818Z,26.13
2019-02-26T07:49:47.377Z,16.37
2019-02-26T07:52:17.205Z,12.30
2019-02-26T07:54:47.570Z,9.77
2019-02-26T07:57:20.171Z,11.73
2019-02-26T07:59:50.201Z,10.00
2019-02-26T08:02:19.902Z,8.07
2019-02-26T08:04:49.446Z,6.27
2019-02-26T08:07:21.504Z,6.43
2019-02-26T08:09:50.553Z,6.37
2019-02-26T08:12:20.177Z,5.60
2019-02-26T08:14:50.173Z,7.53
2019-02-26T08:17:19.802Z,6.77
2019-02-26T08:19:49.499Z,6.90
2019-02-26T08:22:20.320Z,6.13
2019-02-26T08:24:50.869Z,6.50
2019-02-26T08:27:21.102Z,8.70
2019-02-26T08:29:51.800Z,6.57
2019-02-26T08:32:23.950Z,8.97
2019-02-26T08:34:53.398Z,10.03
2019-02-26T08:37:23.235Z,13.97
2019-02-26T08:39:54.942Z,6.50
2019-02-26T08:42:24.045Z,5.40
2019-02-26T08:44:55.854Z,9.30
2019-02-26T08:47:25.125Z,6.77
2019-02-26T08:49:54.685Z,10.80
2019-02-26T08:52:26.470Z,4.73
2019-02-26T08:54:55.741Z,6.97
2019-02-26T08:57:25.297Z,5.83
2019-02-26T08:59:55.154Z,7.00
2019-02-26T09:02:24.750Z,11.20
2019-02-26T09:04:54.309Z,11.87
2019-02-26T09:07:26.170Z,13.33
2019-02-26T09:09:57.571Z,12.20
2019-02-26T09:12:27.384Z,8.00
2019-02-26T09:14:56.582Z,6.43
2019-02-26T09:17:29.363Z,9.73
2019-02-26T09:20:08.309Z,11.97
2019-02-26T09:22:28.496Z,6.43
2019-02-26T09:24:59.920Z,11.00
2019-02-26T09:27:32.117Z,5.43
2019-02-26T09:30:03.482Z,5.33
2019-02-26T09:32:35.020Z,6.40
2019-02-26T09:35:05.350Z,5.93
2019-02-26T09:37:35.298Z,5.27
2019-02-26T09:40:04.889Z,7.87
2019-02-26T09:42:34.675Z,7.17
2019-02-26T09:45:03.894Z,7.17
2019-02-26T09:47:33.841Z,6.50
2019-02-26T09:50:03.498Z,5.40
2019-02-26T09:52:33.103Z,6.17
2019-02-26T09:55:03.033Z,4.77
2019-02-26T09:57:32.648Z,7.20
2019-02-26T10:00:03.245Z,6.47
2019-02-26T10:02:33.635Z,5.40
2019-02-26T10:05:03.734Z,6.10
2019-02-26T10:07:36.972Z,7.23
2019-02-26T10:10:13.577Z,7.80
2019-02-26T10:12:41.652Z,5.63
2019-02-26T10:15:12.194Z,5.30
2019-02-26T10:17:42.845Z,7.57
2019-02-26T10:20:20.022Z,7.20
2019-02-26T10:22:49.569Z,9.57
2019-02-26T10:25:21.170Z,8.63
2019-02-26T10:27:50.415Z,6.17
2019-02-26T10:30:20.002Z,4.67
2019-02-26T10:32:49.991Z,6.77
2019-02-26T10:35:25.626Z,5.90
2019-02-26T10:37:52.969Z,6.93
2019-02-26T10:40:22.679Z,6.63
2019-02-26T10:42:52.398Z,7.93
2019-02-26T10:45:24.731Z,8.33
2019-02-26T10:47:56.682Z,5.33
2019-02-26T10:50:31.037Z,7.03
2019-02-26T10:53:06.561Z,4.13
2019-02-26T10:55:35.319Z,4.87
2019-02-26T10:58:04.664Z,5.63
2019-02-26T11:00:34.811Z,5.83
2019-02-26T11:03:01.832Z,4.60
2019-02-26T11:05:31.854Z,5.17
2019-02-26T11:08:02.907Z,6.80
2019-02-26T11:10:32.637Z,5.50
2019-02-26T11:13:02.325Z,9.03
2019-02-26T11:15:35.424Z,8.10
2019-02-26T11:18:03.961Z,5.10
2019-02-26T11:20:34.369Z,9.93
2019-02-26T11:23:05.903Z,5.70
2019-02-26T11:25:39.119Z,3.70
2019-02-26T11:28:10.636Z,3.87
2019-02-26T11:30:40.109Z,5.27
2019-02-26T11:33:11.348Z,5.77
2019-02-26T11:35:44.344Z,4.27
2019-02-26T11:38:16.510Z,5.43
2019-02-26T11:40:45.993Z,5.67
2019-02-26T11:43:19.361Z,6.07
2019-02-26T11:45:46.974Z,4.83
2019-02-26T11:48:17.620Z,5.53
2019-02-26T11:50:47.340Z,4.63
2019-02-26T11:53:17.465Z,7.57
2019-02-26T11:55:49.331Z,8.90
2019-02-26T11:58:19.940Z,18.57
2019-02-26T12:00:52.431Z,11.27
2019-02-26T12:03:24.940Z,8.07
2019-02-26T12:05:54.184Z,5.17
2019-02-26T12:08:25.718Z,6.93
2019-02-26T12:11:01.036Z,6.80
2019-02-26T12:13:27.840Z,9.40
2019-02-26T12:15:57.925Z,7.20
2019-02-26T12:18:28.361Z,3.63
2019-02-26T12:20:59.997Z,5.80
2019-02-26T12:23:29.641Z,4.33
2019-02-26T12:26:01.100Z,3.67
2019-02-26T12:28:33.480Z,4.63
2019-02-26T12:31:04.334Z,3.23
2019-02-26T12:33:36.703Z,5.80
2019-02-26T12:36:07.449Z,5.00
2019-02-26T12:38:38.747Z,7.03
2019-02-26T12:41:09.663Z,5.97
2019-02-26T12:43:43.363Z,4.90
2019-02-26T12:46:12.755Z,4.00
2019-02-26T12:48:46.472Z,5.10
2019-02-26T12:51:13.714Z,4.80
2019-02-26T12:53:49.619Z,4.87
2019-02-26T12:56:17.936Z,5.33
2019-02-26T12:58:48.352Z,5.03
2019-02-26T13:01:21.093Z,5.83
2019-02-26T13:03:54.626Z,7.33
2019-02-26T13:06:22.965Z,5.83
2019-02-26T13:08:53.145Z,6.43
2019-02-26T13:11:24.909Z,4.17
2019-02-26T13:13:53.949Z,7.27
2019-02-26T13:16:24.245Z,6.80
2019-02-26T13:18:58.596Z,7.07
2019-02-26T13:21:25.046Z,7.93
2019-02-26T13:23:58.496Z,9.37
2019-02-26T13:26:27.969Z,7.70
2019-02-26T13:29:00.489Z,10.70
2019-02-26T13:31:34.056Z,9.87
2019-02-26T13:34:04.568Z,11.23
2019-02-26T13:36:36.366Z,10.87
2019-02-26T13:39:07.383Z,8.90
2019-02-26T13:41:39.068Z,13.63
2019-02-26T13:44:08.991Z,12.27
2019-02-26T13:46:40.571Z,11.13
2019-02-26T13:49:10.297Z,9.97
2019-02-26T13:51:40.249Z,9.97
2019-02-26T13:54:10.270Z,11.60
2019-02-26T13:56:40.323Z,9.93
2019-02-26T13:59:10.041Z,13.43
2019-02-26T14:01:40.737Z,11.57
2019-02-26T14:04:10.324Z,10.23
2019-02-26T14:06:42.381Z,9.43
2019-02-26T14:09:12.731Z,9.00
2019-02-26T14:11:42.363Z,9.03
2019-02-26T14:14:11.990Z,12.00
2019-02-26T14:16:42.865Z,11.87
2019-02-26T14:19:13.495Z,11.73
2019-02-26T14:21:43.090Z,14.63
2019-02-26T14:24:13.153Z,13.33
2019-02-26T14:26:42.755Z,10.87
2019-02-26T14:29:12.316Z,10.93
2019-02-26T14:31:42.191Z,9.83
2019-02-26T14:34:11.793Z,7.67
2019-02-26T14:36:43.326Z,10.90
2019-02-26T14:39:13.526Z,9.10
2019-02-26T14:41:43.096Z,9.33
2019-02-26T14:44:12.666Z,9.03
2019-02-26T14:46:42.882Z,10.60
2019-02-26T14:49:12.459Z,12.90
2019-02-26T14:51:44.889Z,11.73
2019-02-26T14:54:17.109Z,8.77
2019-02-26T14:56:46.673Z,13.93
2019-02-26T14:59:16.242Z,11.37
2019-02-26T15:01:48.843Z,13.90
2019-02-26T15:04:18.396Z,13.57
2019-02-26T15:06:48.255Z,10.70
2019-02-26T15:09:17.855Z,9.13
2019-02-26T15:11:47.730Z,9.10
2019-02-26T15:14:17.747Z,9.07
2019-02-26T15:16:47.486Z,11.27
2019-02-26T15:19:17.209Z,10.33
2019-02-26T15:21:47.290Z,12.53
2019-02-26T15:24:20.145Z,9.83
2019-02-26T15:26:49.780Z,9.80
2019-02-26T15:29:19.629Z,13.67
2019-02-26T15:31:49.231Z,12.60
2019-02-26T15:34:20.350Z,12.93
2019-02-26T15:36:50.194Z,19.00
2019-02-26T15:39:19.917Z,16.43
2019-02-26T15:41:50.558Z,18.77
2019-02-26T15:44:20.468Z,18.27
2019-02-26T15:46:50.065Z,24.67
2019-02-26T15:49:22.121Z,19.23
2019-02-26T15:51:51.963Z,16.47
2019-02-26T15:54:21.565Z,19.43
2019-02-26T15:56:51.326Z,16.80
2019-02-26T15:59:21.177Z,18.37
2019-02-26T16:01:50.869Z,15.17
2019-02-26T16:04:23.414Z,16.40
2019-02-26T16:06:53.380Z,15.10
2019-02-26T16:09:32.975Z,15.67
2019-02-26T16:12:03.367Z,15.17
2019-02-26T16:14:40.426Z,11.43
2019-02-26T16:17:10.239Z,18.30
2019-02-26T16:19:43.689Z,23.03
2019-02-26T16:22:13.519Z,20.37
2019-02-26T16:24:43.170Z,16.67
2019-02-26T16:27:12.726Z,12.13
2019-02-26T16:29:42.324Z,11.43
2019-02-26T16:32:12.145Z,10.90
2019-02-26T16:34:43.049Z,10.37
2019-02-26T16:37:12.977Z,10.23
2019-02-26T16:39:42.850Z,9.83
2019-02-26T16:42:12.413Z,14.00
2019-02-26T16:44:42.297Z,13.23
2019-02-26T16:47:12.619Z,12.03
2019-02-26T16:49:43.082Z,10.40
2019-02-26T16:52:12.943Z,11.40
2019-02-26T16:54:45.408Z,13.77
2019-02-26T16:57:15.293Z,11.03
2019-02-26T16:59:44.941Z,10.37
2019-02-26T17:02:15.003Z,12.00
2019-02-26T17:04:44.582Z,10.93
2019-02-26T17:07:14.558Z,13.23
2019-02-26T17:09:44.122Z,13.07
2019-02-26T17:12:13.699Z,12.17
2019-02-26T17:14:44.265Z,12.80
2019-02-26T17:17:14.033Z,9.77
2019-02-26T17:19:43.647Z,13.73
2019-02-26T17:22:13.565Z,13.23
2019-02-26T17:24:43.141Z,12.10
2019-02-26T17:27:12.918Z,13.03
2019-02-26T17:29:43.142Z,10.73
2019-02-26T17:32:13.610Z,12.07
2019-02-26T17:34:43.174Z,11.77
2019-02-26T17:37:17.788Z,10.03
2019-02-26T17:39:47.385Z,10.77
2019-02-26T17:42:17.812Z,15.00
2019-02-26T17:44:48.454Z,13.30
2019-02-26T17:47:17.427Z,15.17
2019-02-26T17:49:47.274Z,14.47
2019-02-26T17:52:17.159Z,16.13
2019-02-26T17:54:49.248Z,17.90
2019-02-26T17:57:18.896Z,16.70
2019-02-26T17:59:49.185Z,30.13
2019-02-26T18:02:27.381Z,34.43
2019-02-26T18:04:58.490Z,25.90
2019-02-26T18:07:28.019Z,29.30
2019-02-26T18:09:57.594Z,27.57
2019-02-26T18:12:27.525Z,29.03
2019-02-26T18:14:59.600Z,39.27
2019-02-26T18:17:29.195Z,111.13
2019-02-26T18:19:59.926Z,42.37
2019-02-26T18:22:29.533Z,39.53
2019-02-26T18:25:00.320Z,42.67
2019-02-26T18:27:31.628Z,42.17
2019-02-26T18:30:01.177Z,48.83
2019-02-26T18:32:30.844Z,38.13
2019-02-26T18:35:00.492Z,39.07
2019-02-26T18:37:30.218Z,28.60
2019-02-26T18:40:00.238Z,25.20
2019-02-26T18:42:32.132Z,25.03
2019-02-26T18:45:01.710Z,23.83
2019-02-26T18:47:31.282Z,21.57
2019-02-26T18:50:00.882Z,17.97
2019-02-26T18:52:30.941Z,18.77
2019-02-26T18:55:00.559Z,22.20
2019-02-26T18:57:29.502Z,24.73
2019-02-26T18:59:59.412Z,18.13
2019-02-26T19:02:28.412Z,20.77
2019-02-26T19:05:00.714Z,18.73
2019-02-26T19:07:33.858Z,19.00
2019-02-26T19:10:02.561Z,35.13
2019-02-26T19:12:31.651Z,31.17
2019-02-26T19:15:02.654Z,38.97
2019-02-26T19:17:32.413Z,23.20
2019-02-26T19:20:01.384Z,24.80
2019-02-26T19:22:31.595Z,26.13
2019-02-26T19:25:00.499Z,24.13
2019-02-26T19:27:31.421Z,24.10
2019-02-26T19:30:04.048Z,21.07
2019-02-26T19:32:31.326Z,24.13
2019-02-26T19:35:01.896Z,21.43
2019-02-26T19:37:32.038Z,26.20
2019-02-26T19:40:05.671Z,26.63
2019-02-26T19:42:32.861Z,29.23
2019-02-26T19:45:02.197Z,30.57
2019-02-26T19:47:31.172Z,23.00
2019-02-26T19:50:00.782Z,24.10
2019-02-26T19:52:30.706Z,20.50
2019-02-26T19:54:59.589Z,15.97
2019-02-26T19:57:30.222Z,16.53
2019-02-26T20:00:00.847Z,18.50
2019-02-26T20:02:31.670Z,17.27
2019-02-26T20:05:01.095Z,18.63
2019-02-26T20:07:32.529Z,20.43
2019-02-26T20:10:01.979Z,19.23
2019-02-26T20:12:32.495Z,19.63
2019-02-26T20:15:02.530Z,26.20
2019-02-26T20:17:31.450Z,22.63
2019-02-26T20:20:04.955Z,21.37
2019-02-26T20:22:33.414Z,23.80
2019-02-26T20:25:03.183Z,21.53
2019-02-26T20:27:32.826Z,19.90
2019-02-26T20:30:02.604Z,19.53
2019-02-26T20:32:32.209Z,18.93
2019-02-26T20:35:01.817Z,19.50
2019-02-26T20:37:32.147Z,17.53
2019-02-26T20:40:01.787Z,22.00
2019-02-26T20:42:31.873Z,19.67
2019-02-26T20:45:01.339Z,19.80
2019-02-26T20:47:31.619Z,16.50
2019-02-26T20:50:01.913Z,18.90
2019-02-26T20:52:32.874Z,16.67
2019-02-26T20:55:03.533Z,20.57
2019-02-26T20:57:34.910Z,17.67
2019-02-26T21:00:05.279Z,15.10
2019-02-26T21:02:34.907Z,12.63
2019-02-26T21:05:04.780Z,17.77
2019-02-26T21:07:37.590Z,12.50
2019-02-26T21:10:06.747Z,12.97
2019-02-26T21:12:36.512Z,15.03
2019-02-26T21:15:06.474Z,15.00
2019-02-26T21:17:40.764Z,17.17
2019-02-26T21:20:10.146Z,14.73
2019-02-26T21:22:40.030Z,22.70
2019-02-26T21:25:10.806Z,27.53
2019-02-26T21:27:40.559Z,29.87
2019-02-26T21:30:12.720Z,25.90
2019-02-26T21:32:43.377Z,20.63
2019-02-26T21:35:13.529Z,19.17
2019-02-26T21:37:43.270Z,18.83
2019-02-26T21:40:15.873Z,15.20
2019-02-26T21:42:46.012Z,14.63
2019-02-26T21:45:16.200Z,17.37
2019-02-26T21:47:46.717Z,17.60
2019-02-26T21:50:17.120Z,15.20
2019-02-26T21:52:59.116Z,11.77
2019-02-26T21:55:17.997Z,18.70
2019-02-26T21:57:47.914Z,13.37
2019-02-26T22:00:17.770Z,12.97
2019-02-26T22:02:51.786Z,10.50
2019-02-26T22:05:18.692Z,13.43
2019-02-26T22:07:51.969Z,10.17
2019-02-26T22:10:19.776Z,10.93
2019-02-26T22:12:48.824Z,11.37
2019-02-26T22:15:18.630Z,13.77
2019-02-26T22:17:47.800Z,9.03
2019-02-26T22:20:23.711Z,11.57
2019-02-26T22:22:49.321Z,12.13
2019-02-26T22:25:19.202Z,8.10
2019-02-26T22:27:48.211Z,6.57
2019-02-26T22:30:22.044Z,6.67
2019-02-26T22:32:50.616Z,9.90
2019-02-26T22:35:20.213Z,11.53
2019-02-26T22:37:49.781Z,11.20
2019-02-26T22:40:19.801Z,13.13
2019-02-26T22:42:49.448Z,15.50
2019-02-26T22:45:19.085Z,14.80
2019-02-26T22:47:48.909Z,19.77
2019-02-26T22:50:18.647Z,17.93
2019-02-26T22:52:48.241Z,18.17
2019-02-26T22:55:18.108Z,11.10
2019-02-26T22:57:47.766Z,10.50
2019-02-26T23:00:49.557Z,11.63
2019-02-26T23:03:19.770Z,11.37
2019-02-26T23:05:49.475Z,10.20
2019-02-26T23:08:19.315Z,10.90
2019-02-26T23:10:48.937Z,9.97
2019-02-26T23:13:20.393Z,8.73
2019-02-26T23:15:50.844Z,7.87
2019-02-26T23:18:21.333Z,11.33
2019-02-26T23:20:51.051Z,11.50
2019-02-26T23:23:21.964Z,10.27
2019-02-26T23:25:51.973Z,9.70
2019-02-26T23:28:22.875Z,10.47
2019-02-26T23:30:52.478Z,10.30
2019-02-26T23:33:21.417Z,9.87
2019-02-26T23:35:54.836Z,9.67
2019-02-26T23:38:22.669Z,8.27
2019-02-26T23:40:51.879Z,12.93
2019-02-26T23:43:21.513Z,10.93
2019-02-26T23:45:50.429Z,10.63
2019-02-26T23:48:20.288Z,10.77
2019-02-26T23:50:49.869Z,8.77
2019-02-26T23:53:19.474Z,9.80
2019-02-26T23:55:50.285Z,11.77
2019-02-26T23:58:19.210Z,11.30
